Philadelphia, Pennsylvania
Traffic Map
Current Weather Conditions
Philadelphia, Pennsylvania
Broken Clouds Haze
Broken Clouds
62°
Feels Like: 62°
Wind Chill: 62° Ceiling: 6000
Heat Index: 62° Visibility: 6mi
Dew Point: 60° Wind: 0mph
Humidity: 93% Direction: ° ()
Pressure: 29.89in Gusts: 0mph
Raw Report DataKPHL 280954Z 00000KT 6SM BR FEW005 BKN060 17/16 A2989 RMK AO2 SLP119 T01670156 $
Traffic Incident Summary
Active as of:
Severity:
Category:
InformationThere was an issue retrieving the traffic information for this location. Please try a different location or try again shortly.
Advertisements
Track Severe Weather on mobile